createdAt,value
2018-05-03T00:01:09.453Z,10.40
2018-05-03T00:03:37.098Z,8.37
2018-05-03T00:06:04.798Z,8.30
2018-05-03T00:08:32.470Z,8.50
2018-05-03T00:11:00.110Z,10.30
2018-05-03T00:13:28.594Z,9.33
2018-05-03T00:15:56.268Z,8.63
2018-05-03T00:18:24.017Z,9.50
2018-05-03T00:20:51.647Z,10.97
2018-05-03T00:23:19.313Z,9.33
2018-05-03T00:25:46.958Z,8.30
2018-05-03T00:28:14.633Z,9.57
2018-05-03T00:30:42.284Z,7.90
2018-05-03T00:33:09.923Z,8.83
2018-05-03T00:35:38.350Z,7.07
2018-05-03T00:38:06.010Z,9.10
2018-05-03T00:40:33.655Z,9.70
2018-05-03T00:43:01.334Z,10.80
2018-05-03T00:45:28.987Z,8.97
2018-05-03T00:47:56.643Z,7.60
2018-05-03T00:50:24.327Z,11.13
2018-05-03T00:52:52.034Z,8.70
2018-05-03T00:55:19.670Z,9.47
2018-05-03T00:57:47.379Z,11.17
2018-05-03T01:00:15.066Z,9.70
2018-05-03T01:02:42.688Z,8.50
2018-05-03T01:05:10.409Z,8.13
2018-05-03T01:07:38.887Z,9.33
2018-05-03T01:10:07.317Z,8.17
2018-05-03T01:12:34.984Z,8.00
2018-05-03T01:15:02.696Z,11.90
2018-05-03T01:17:30.333Z,7.70
2018-05-03T01:19:58.052Z,9.50
2018-05-03T01:22:25.709Z,8.40
2018-05-03T01:24:53.373Z,9.93
2018-05-03T01:27:21.048Z,11.37
2018-05-03T01:29:48.724Z,10.07
2018-05-03T01:32:16.386Z,9.30
2018-05-03T01:34:44.104Z,8.17
2018-05-03T01:37:11.766Z,7.80
2018-05-03T01:39:39.408Z,11.27
2018-05-03T01:42:07.099Z,8.93
2018-05-03T01:44:34.754Z,10.10
2018-05-03T01:47:02.634Z,8.53
2018-05-03T01:49:30.298Z,12.10
2018-05-03T01:51:57.994Z,10.50
2018-05-03T01:54:25.616Z,7.97
2018-05-03T01:56:53.326Z,8.20
2018-05-03T01:59:21.771Z,8.90
2018-05-03T02:01:49.408Z,8.97
2018-05-03T02:04:17.093Z,9.40
2018-05-03T02:06:44.775Z,9.60
2018-05-03T02:09:13.227Z,10.50
2018-05-03T02:11:40.899Z,9.23
2018-05-03T02:14:08.574Z,10.17
2018-05-03T02:16:36.210Z,8.43
2018-05-03T02:19:03.879Z,8.97
2018-05-03T02:21:31.540Z,9.40
2018-05-03T02:23:59.162Z,9.20
2018-05-03T02:26:26.830Z,9.17
2018-05-03T02:28:54.511Z,8.63
2018-05-03T02:31:22.188Z,8.33
2018-05-03T02:33:49.856Z,9.23
2018-05-03T02:36:17.522Z,9.80
2018-05-03T02:38:45.932Z,9.50
2018-05-03T02:41:13.604Z,9.50
2018-05-03T02:43:41.276Z,11.23
2018-05-03T02:46:08.920Z,8.37
2018-05-03T02:48:36.582Z,13.20
2018-05-03T02:51:04.264Z,13.07
2018-05-03T02:53:31.891Z,8.23
2018-05-03T02:55:59.558Z,10.97
2018-05-03T02:58:39.077Z,9.30
2018-05-03T03:01:24.648Z,8.40
2018-05-03T03:07:32.565Z,8.23
2018-05-03T03:13:42.006Z,8.50
2018-05-03T03:16:27.337Z,8.97
2018-05-03T03:19:12.724Z,7.87
2018-05-03T03:25:06.607Z,11.30
2018-05-03T03:27:52.007Z,8.80
2018-05-03T03:30:37.252Z,9.13
2018-05-03T03:33:16.679Z,8.80
2018-05-03T03:36:04.924Z,8.17
2018-05-03T03:38:44.458Z,9.20
2018-05-03T03:41:23.939Z,8.00
2018-05-03T03:44:03.466Z,7.67
2018-05-03T03:46:31.130Z,12.17
2018-05-03T03:48:58.802Z,9.60
2018-05-03T03:51:26.440Z,8.80
2018-05-03T03:53:54.102Z,11.63
2018-05-03T03:56:21.853Z,8.17
2018-05-03T03:58:49.470Z,10.57
2018-05-03T04:01:17.917Z,7.67
2018-05-03T04:03:45.584Z,7.87
2018-05-03T04:06:13.233Z,11.90
2018-05-03T04:08:40.911Z,8.60
2018-05-03T04:11:08.642Z,7.97
2018-05-03T04:13:36.276Z,9.20
2018-05-03T04:16:03.978Z,8.97
2018-05-03T04:18:43.523Z,9.03
2018-05-03T04:24:23.906Z,12.87
2018-05-03T04:26:51.574Z,8.97
2018-05-03T04:29:19.237Z,15.97
2018-05-03T04:31:47.635Z,9.87
2018-05-03T04:34:15.276Z,8.93
2018-05-03T04:36:43.703Z,9.33
2018-05-03T04:39:11.353Z,8.00
2018-05-03T04:41:39.006Z,8.30
2018-05-03T04:44:06.680Z,12.67
2018-05-03T04:46:34.332Z,10.50
2018-05-03T04:49:02.008Z,12.57
2018-05-03T04:51:29.657Z,7.80
2018-05-03T04:53:57.291Z,8.20
2018-05-03T04:56:25.713Z,10.57
2018-05-03T04:58:53.363Z,11.40
2018-05-03T05:01:21.002Z,13.20
2018-05-03T05:03:48.671Z,11.40
2018-05-03T05:06:16.340Z,9.57
2018-05-03T05:08:43.980Z,8.13
2018-05-03T05:11:11.639Z,10.50
2018-05-03T05:13:39.323Z,8.90
2018-05-03T05:16:06.993Z,7.67
2018-05-03T05:18:34.663Z,13.30
2018-05-03T05:21:02.347Z,9.23
2018-05-03T05:23:29.979Z,9.63
2018-05-03T05:25:57.619Z,8.03
2018-05-03T05:28:25.397Z,10.10
2018-05-03T05:30:53.010Z,9.37
2018-05-03T05:33:21.447Z,10.57
2018-05-03T05:35:49.156Z,13.30
2018-05-03T05:38:16.837Z,12.00
2018-05-03T05:40:44.500Z,11.53
2018-05-03T05:43:12.175Z,12.83
2018-05-03T05:45:39.829Z,10.53
2018-05-03T05:48:07.498Z,11.03
2018-05-03T05:50:35.171Z,7.43
2018-05-03T05:53:02.807Z,10.40
2018-05-03T05:55:30.472Z,12.90
2018-05-03T05:57:58.136Z,11.70
2018-05-03T06:00:25.778Z,15.50
2018-05-03T06:02:53.932Z,8.30
2018-05-03T06:05:22.961Z,10.30
2018-05-03T06:07:50.586Z,19.10
2018-05-03T06:10:18.276Z,8.93
2018-05-03T06:12:45.978Z,11.83
2018-05-03T06:15:13.632Z,12.73
2018-05-03T06:17:41.295Z,10.90
2018-05-03T06:20:08.971Z,10.60
2018-05-03T06:22:36.597Z,11.80
2018-05-03T06:25:04.286Z,8.37
2018-05-03T06:27:32.766Z,18.10
2018-05-03T06:30:01.202Z,11.27
2018-05-03T06:32:28.878Z,10.07
2018-05-03T06:34:56.607Z,9.83
2018-05-03T06:37:24.237Z,8.57
2018-05-03T06:39:52.716Z,11.03
2018-05-03T06:42:21.140Z,11.30
2018-05-03T06:44:48.772Z,9.20
2018-05-03T06:47:16.431Z,10.83
2018-05-03T06:49:44.126Z,11.73
2018-05-03T06:52:11.784Z,10.77
2018-05-03T06:54:39.499Z,11.50
2018-05-03T06:57:07.951Z,17.47
2018-05-03T06:59:35.585Z,10.93
2018-05-03T07:02:03.247Z,9.07
2018-05-03T07:04:30.986Z,9.47
2018-05-03T07:06:59.362Z,10.87
2018-05-03T07:09:27.052Z,13.43
2018-05-03T07:11:55.016Z,8.67
2018-05-03T07:14:22.649Z,8.70
2018-05-03T07:16:51.081Z,8.37
2018-05-03T07:19:18.751Z,9.27
2018-05-03T07:21:46.429Z,8.63
2018-05-03T07:24:14.111Z,8.77
2018-05-03T07:26:41.771Z,11.70
2018-05-03T07:29:09.415Z,15.23
2018-05-03T07:31:37.115Z,12.40
2018-05-03T07:34:04.829Z,17.20
2018-05-03T07:36:33.272Z,10.30
2018-05-03T07:39:00.955Z,9.17
2018-05-03T07:41:29.392Z,11.30
2018-05-03T07:43:57.054Z,10.23
2018-05-03T07:46:24.911Z,11.03
2018-05-03T07:48:52.628Z,14.07
2018-05-03T07:51:21.115Z,10.27
2018-05-03T07:53:48.800Z,9.73
2018-05-03T07:56:16.556Z,9.30
2018-05-03T07:58:44.178Z,7.93
2018-05-03T08:01:11.865Z,10.30
2018-05-03T08:03:39.540Z,7.87
2018-05-03T08:06:07.188Z,8.63
2018-05-03T08:08:34.856Z,12.60
2018-05-03T08:11:02.560Z,7.80
2018-05-03T08:13:30.219Z,11.73
2018-05-03T08:15:57.881Z,9.90
2018-05-03T08:18:25.602Z,9.50
2018-05-03T08:20:53.263Z,8.67
2018-05-03T08:23:20.929Z,8.93
2018-05-03T08:25:48.602Z,9.70
2018-05-03T08:28:16.254Z,9.80
2018-05-03T08:30:43.929Z,9.20
2018-05-03T08:33:11.609Z,10.90
2018-05-03T08:35:39.231Z,8.60
2018-05-03T08:38:06.912Z,8.40
2018-05-03T08:40:34.583Z,14.07
2018-05-03T08:43:02.262Z,13.47
2018-05-03T08:45:29.941Z,16.03
2018-05-03T08:47:57.668Z,8.60
2018-05-03T08:50:25.336Z,8.00
2018-05-03T08:52:53.007Z,8.30
2018-05-03T08:55:20.662Z,10.97
2018-05-03T08:57:49.254Z,13.10
2018-05-03T09:00:17.769Z,13.23
2018-05-03T09:02:45.480Z,8.57
2018-05-03T09:05:13.128Z,11.17
2018-05-03T09:07:40.861Z,13.90
2018-05-03T09:10:08.538Z,9.67
2018-05-03T09:12:36.244Z,10.43
2018-05-03T09:15:04.700Z,7.50
2018-05-03T09:17:32.447Z,10.40
2018-05-03T09:20:00.098Z,9.13
2018-05-03T09:22:27.870Z,8.50
2018-05-03T09:24:55.519Z,9.50
2018-05-03T09:27:23.247Z,8.50
2018-05-03T09:29:51.015Z,13.23
2018-05-03T09:32:18.791Z,14.27
2018-05-03T09:34:46.475Z,8.30
2018-05-03T09:37:14.224Z,11.40
2018-05-03T09:39:41.943Z,10.47
2018-05-03T09:42:10.478Z,11.60
2018-05-03T09:44:38.153Z,12.30
2018-05-03T09:47:05.847Z,10.33
2018-05-03T09:49:34.251Z,18.80
2018-05-03T09:52:01.913Z,11.23
2018-05-03T09:54:29.583Z,9.17
2018-05-03T09:56:57.225Z,12.63
2018-05-03T09:59:24.953Z,9.60
2018-05-03T10:01:52.611Z,11.80
2018-05-03T10:04:20.244Z,11.23
2018-05-03T10:06:47.940Z,12.97
2018-05-03T10:09:16.421Z,10.33
2018-05-03T10:11:44.090Z,10.03
2018-05-03T10:14:11.835Z,15.80
2018-05-03T10:16:40.317Z,9.90
2018-05-03T10:19:08.787Z,10.90
2018-05-03T10:21:36.440Z,9.93
2018-05-03T10:24:04.146Z,14.00
2018-05-03T10:26:31.804Z,10.77
2018-05-03T10:28:59.546Z,10.20
2018-05-03T10:31:27.257Z,9.90
2018-05-03T10:33:54.932Z,10.70
2018-05-03T10:36:22.679Z,10.50
2018-05-03T10:38:50.418Z,11.43
2018-05-03T10:41:18.114Z,10.03
2018-05-03T10:43:45.790Z,9.70
2018-05-03T10:46:13.521Z,9.40
2018-05-03T10:48:41.260Z,14.70
2018-05-03T10:51:09.138Z,9.70
2018-05-03T10:53:36.856Z,11.20
2018-05-03T10:56:05.395Z,11.57
2018-05-03T10:58:33.071Z,9.53
2018-05-03T11:01:00.802Z,10.80
2018-05-03T11:03:28.463Z,11.00
2018-05-03T11:05:56.143Z,10.30
2018-05-03T11:08:23.880Z,12.90
2018-05-03T11:10:51.571Z,16.67
2018-05-03T11:13:19.311Z,11.40
2018-05-03T11:15:47.738Z,11.73
2018-05-03T11:18:15.446Z,13.70
2018-05-03T11:20:43.882Z,10.40
2018-05-03T11:23:12.338Z,11.90
2018-05-03T11:25:40.063Z,12.00
2018-05-03T11:28:07.749Z,13.33
2018-05-03T11:30:35.434Z,13.50
2018-05-03T11:33:03.916Z,14.43
2018-05-03T11:35:31.610Z,14.10
2018-05-03T11:37:59.327Z,12.63
2018-05-03T11:40:26.967Z,12.63
2018-05-03T11:42:54.651Z,11.67
2018-05-03T11:45:22.326Z,11.23
2018-05-03T11:47:49.956Z,10.70
2018-05-03T11:50:17.686Z,10.90
2018-05-03T11:52:45.419Z,12.27
2018-05-03T11:55:13.086Z,9.73
2018-05-03T11:57:40.766Z,8.83
2018-05-03T12:00:09.276Z,11.80
2018-05-03T12:02:36.898Z,13.90
2018-05-03T12:05:04.605Z,12.80
2018-05-03T12:07:32.286Z,9.70
2018-05-03T12:09:59.914Z,12.63
2018-05-03T12:12:27.557Z,9.93
2018-05-03T12:14:55.228Z,9.90
2018-05-03T12:17:22.853Z,11.03
2018-05-03T12:19:51.070Z,10.13
2018-05-03T12:22:18.712Z,11.23
2018-05-03T12:24:46.325Z,12.90
2018-05-03T12:27:14.200Z,13.03
2018-05-03T12:29:42.646Z,8.73
2018-05-03T12:32:10.315Z,11.63
2018-05-03T12:34:37.971Z,8.50
2018-05-03T12:37:05.637Z,8.87
2018-05-03T12:39:33.274Z,11.50
2018-05-03T12:42:00.967Z,9.17
2018-05-03T12:44:29.409Z,9.70
2018-05-03T12:46:57.066Z,9.90
2018-05-03T12:49:24.733Z,17.83
2018-05-03T12:51:52.466Z,11.40
2018-05-03T12:54:20.061Z,10.27
2018-05-03T12:56:47.724Z,11.43
2018-05-03T12:59:15.421Z,7.63
2018-05-03T13:01:43.096Z,11.30
2018-05-03T13:04:10.783Z,11.10
2018-05-03T13:06:38.481Z,9.90
2018-05-03T13:09:06.151Z,8.57
2018-05-03T13:11:34.585Z,24.43
2018-05-03T13:14:02.235Z,13.37
2018-05-03T13:16:29.881Z,13.03
2018-05-03T13:18:57.541Z,11.53
2018-05-03T13:21:25.203Z,10.53
2018-05-03T13:23:52.902Z,14.50
2018-05-03T13:26:20.569Z,7.90
2018-05-03T13:28:48.222Z,12.10
2018-05-03T13:31:15.872Z,12.43
2018-05-03T13:33:43.550Z,17.37
2018-05-03T13:36:11.205Z,10.93
2018-05-03T13:38:38.845Z,15.33
2018-05-03T13:41:06.534Z,12.57
2018-05-03T13:43:34.213Z,11.60
2018-05-03T13:46:02.629Z,15.60
2018-05-03T13:48:31.042Z,15.90
2018-05-03T13:50:58.704Z,12.60
2018-05-03T13:53:26.372Z,16.00
2018-05-03T13:55:54.036Z,11.07
2018-05-03T13:58:21.717Z,12.00
2018-05-03T14:00:50.208Z,13.03
2018-05-03T14:03:17.863Z,13.10
2018-05-03T14:05:46.313Z,13.63
2018-05-03T14:08:13.977Z,14.63
2018-05-03T14:10:41.656Z,18.43
2018-05-03T14:13:10.083Z,16.87
2018-05-03T14:15:37.938Z,13.57
2018-05-03T14:18:05.611Z,13.77
2018-05-03T14:20:33.309Z,15.63
2018-05-03T14:23:00.932Z,14.27
2018-05-03T14:25:28.602Z,14.60
2018-05-03T14:27:56.286Z,29.27
2018-05-03T14:30:24.686Z,16.00
2018-05-03T14:32:53.122Z,16.37
2018-05-03T14:35:20.788Z,20.53
2018-05-03T14:37:48.425Z,21.40
2018-05-03T14:40:16.345Z,15.50
2018-05-03T14:42:44.066Z,13.07
2018-05-03T14:45:11.730Z,14.40
2018-05-03T14:47:39.387Z,15.23
2018-05-03T14:50:07.141Z,15.23
2018-05-03T14:52:34.754Z,15.93
2018-05-03T14:55:03.197Z,16.67
2018-05-03T14:57:31.673Z,14.77
2018-05-03T14:59:59.324Z,23.33
2018-05-03T15:02:26.986Z,17.03
2018-05-03T15:04:54.634Z,17.97
2018-05-03T15:07:22.308Z,18.00
2018-05-03T15:09:49.953Z,14.77
2018-05-03T15:12:17.597Z,17.23
2018-05-03T15:14:45.278Z,19.53
2018-05-03T15:17:13.005Z,16.97
2018-05-03T15:19:40.678Z,18.57
2018-05-03T15:22:08.316Z,17.67
2018-05-03T15:24:36.734Z,23.20
2018-05-03T15:27:04.402Z,21.37
2018-05-03T15:29:32.645Z,22.30
2018-05-03T15:32:00.321Z,27.77
2018-05-03T15:34:28.056Z,23.10
2018-05-03T15:36:55.760Z,24.07
2018-05-03T15:39:23.476Z,20.83
2018-05-03T15:41:51.189Z,31.13
2018-05-03T15:44:18.859Z,28.77
2018-05-03T15:46:46.538Z,40.43
2018-05-03T15:49:14.975Z,33.40
2018-05-03T15:51:42.738Z,38.40
2018-05-03T15:54:10.443Z,33.87
2018-05-03T15:56:38.874Z,31.10
2018-05-03T15:59:06.506Z,35.23
2018-05-03T16:01:34.242Z,27.07
2018-05-03T16:04:01.904Z,38.13
2018-05-03T16:06:30.313Z,34.03
2018-05-03T16:08:58.033Z,38.30
2018-05-03T16:11:25.735Z,34.87
2018-05-03T16:13:53.372Z,37.67
2018-05-03T16:16:21.073Z,30.83
2018-05-03T16:18:48.743Z,33.17
2018-05-03T16:21:16.380Z,37.90
2018-05-03T16:23:44.070Z,34.17
2018-05-03T16:26:11.752Z,33.43
2018-05-03T16:28:39.393Z,28.70
2018-05-03T16:31:07.131Z,35.53
2018-05-03T16:33:34.806Z,32.43
2018-05-03T16:36:02.447Z,31.50
2018-05-03T16:38:30.132Z,31.47
2018-05-03T16:40:57.804Z,32.30
2018-05-03T16:43:25.456Z,29.60
2018-05-03T16:45:53.141Z,26.33
2018-05-03T16:48:21.995Z,35.93
2018-05-03T16:50:49.682Z,25.20
2018-05-03T16:53:17.378Z,29.70
2018-05-03T16:55:45.055Z,24.83
2018-05-03T16:58:12.692Z,29.37
2018-05-03T17:00:41.181Z,24.60
2018-05-03T17:03:08.879Z,35.83
2018-05-03T17:05:36.551Z,26.13
2018-05-03T17:08:04.252Z,24.13
2018-05-03T17:10:31.932Z,25.87
2018-05-03T17:12:59.576Z,23.20
2018-05-03T17:15:27.250Z,27.73
2018-05-03T17:17:54.925Z,22.97
2018-05-03T17:20:22.570Z,23.53
2018-05-03T17:22:50.248Z,22.67
2018-05-03T17:25:17.929Z,24.93
2018-05-03T17:27:45.595Z,24.63
2018-05-03T17:30:13.288Z,24.70
2018-05-03T17:32:41.730Z,20.40
2018-05-03T17:35:09.375Z,20.83
2018-05-03T17:37:37.042Z,19.73
2018-05-03T17:40:04.980Z,22.27
2018-05-03T17:42:32.748Z,23.33
2018-05-03T17:45:00.410Z,25.93
2018-05-03T17:47:28.094Z,23.20
2018-05-03T17:49:55.727Z,23.67
2018-05-03T17:52:23.411Z,25.10
2018-05-03T17:54:51.265Z,21.70
2018-05-03T17:57:19.171Z,20.97
2018-05-03T17:59:47.744Z,19.93
2018-05-03T18:02:15.471Z,24.27
2018-05-03T18:04:43.349Z,23.93
2018-05-03T18:07:11.143Z,20.20
2018-05-03T18:09:39.778Z,22.80
2018-05-03T18:12:08.694Z,26.37
2018-05-03T18:14:37.390Z,20.17
2018-05-03T18:17:05.152Z,19.60
2018-05-03T18:19:33.787Z,21.60
2018-05-03T18:22:01.734Z,21.70
2018-05-03T18:24:29.644Z,18.70
2018-05-03T18:26:57.444Z,20.17
2018-05-03T18:29:25.544Z,25.23
2018-05-03T18:31:53.479Z,21.80
2018-05-03T18:34:21.364Z,21.20
2018-05-03T18:36:48.985Z,20.73
2018-05-03T18:39:16.680Z,23.37
2018-05-03T18:41:45.165Z,15.67
2018-05-03T18:44:12.941Z,23.50
2018-05-03T18:46:40.755Z,23.87
2018-05-03T18:49:08.382Z,16.03
2018-05-03T18:51:36.248Z,20.80
2018-05-03T18:54:04.061Z,21.87
2018-05-03T18:56:31.766Z,19.00
2018-05-03T18:58:59.632Z,19.07
2018-05-03T19:01:27.471Z,23.13
2018-05-03T19:03:56.039Z,18.50
2018-05-03T19:06:24.041Z,18.00
2018-05-03T19:08:51.841Z,18.47
2018-05-03T19:11:19.564Z,21.80
2018-05-03T19:13:47.239Z,19.07
2018-05-03T19:16:15.027Z,18.17
2018-05-03T19:18:42.686Z,20.60
2018-05-03T19:21:10.515Z,19.77
2018-05-03T19:23:38.333Z,16.83
2018-05-03T19:26:06.846Z,18.17
2018-05-03T19:28:34.616Z,23.37
2018-05-03T19:31:02.300Z,18.57
2018-05-03T19:33:29.950Z,17.43
2018-05-03T19:35:57.632Z,18.20
2018-05-03T19:38:25.777Z,19.10
2018-05-03T19:40:53.491Z,18.13
2018-05-03T19:43:21.224Z,20.53
2018-05-03T19:45:49.239Z,22.67
2018-05-03T19:48:17.044Z,20.30
2018-05-03T19:50:44.737Z,19.07
2018-05-03T19:53:12.433Z,18.50
2018-05-03T19:55:40.073Z,23.43
2018-05-03T19:58:08.602Z,19.67
2018-05-03T20:00:36.792Z,20.97
2018-05-03T20:03:04.461Z,20.93
2018-05-03T20:05:32.335Z,23.70
2018-05-03T20:08:01.106Z,20.00
2018-05-03T20:10:29.788Z,19.93
2018-05-03T20:12:57.572Z,22.37
2018-05-03T20:15:25.416Z,16.83
2018-05-03T20:17:54.398Z,19.73
2018-05-03T20:20:22.419Z,18.20
2018-05-03T20:22:50.158Z,14.37
2018-05-03T20:25:17.838Z,16.10
2018-05-03T20:27:46.296Z,18.00
2018-05-03T20:30:13.994Z,20.50
2018-05-03T20:32:41.669Z,18.10
2018-05-03T20:35:09.338Z,19.20
2018-05-03T20:37:37.031Z,19.23
2018-05-03T20:40:04.723Z,18.10
2018-05-03T20:42:32.407Z,19.97
2018-05-03T20:45:00.119Z,19.73
2018-05-03T20:47:27.767Z,17.13
2018-05-03T20:49:55.823Z,21.20
2018-05-03T20:52:24.409Z,20.57
2018-05-03T20:54:55.482Z,19.47
2018-05-03T20:57:23.963Z,17.70
2018-05-03T20:59:54.282Z,19.33
2018-05-03T21:02:22.726Z,22.40
2018-05-03T21:04:50.426Z,20.80
2018-05-03T21:07:18.867Z,24.70
2018-05-03T21:09:51.996Z,28.07
2018-05-03T21:12:20.436Z,23.57
2018-05-03T21:14:49.649Z,21.60
2018-05-03T21:17:17.368Z,21.73
2018-05-03T21:19:45.058Z,24.53
2018-05-03T21:22:15.024Z,19.73
2018-05-03T21:24:42.726Z,23.93
2018-05-03T21:27:12.972Z,21.50
2018-05-03T21:29:44.948Z,19.37
2018-05-03T21:32:13.654Z,21.90
2018-05-03T21:34:41.492Z,20.27
2018-05-03T21:37:09.956Z,21.90
2018-05-03T21:39:38.479Z,24.00
2018-05-03T21:42:06.668Z,20.20
2018-05-03T21:44:35.406Z,24.30
2018-05-03T21:47:04.264Z,23.30
2018-05-03T21:49:33.494Z,20.50
2018-05-03T21:52:02.094Z,25.13
2018-05-03T21:54:30.995Z,31.83
2018-05-03T21:56:58.647Z,22.10
2018-05-03T21:59:26.346Z,22.90
2018-05-03T22:01:54.039Z,20.90
2018-05-03T22:04:21.714Z,20.53
2018-05-03T22:06:50.157Z,21.97
2018-05-03T22:09:17.875Z,25.53
2018-05-03T22:11:45.511Z,24.80
2018-05-03T22:14:14.095Z,21.60
2018-05-03T22:16:42.532Z,23.10
2018-05-03T22:19:10.187Z,27.17
2018-05-03T22:21:37.914Z,24.47
2018-05-03T22:24:05.852Z,23.80
2018-05-03T22:26:33.520Z,25.83
2018-05-03T22:29:01.967Z,22.57
2018-05-03T22:31:29.640Z,24.03
2018-05-03T22:33:57.288Z,31.00
2018-05-03T22:36:24.959Z,20.67
2018-05-03T22:38:52.641Z,25.30
2018-05-03T22:41:21.047Z,25.57
2018-05-03T22:43:48.806Z,22.90
2018-05-03T22:46:16.466Z,27.37
2018-05-03T22:48:44.107Z,20.80
2018-05-03T22:51:12.569Z,25.50
2018-05-03T22:53:41.017Z,22.37
2018-05-03T22:56:08.725Z,24.13
2018-05-03T22:58:37.171Z,24.17
2018-05-03T23:01:04.865Z,22.63
2018-05-03T23:03:33.292Z,20.80
2018-05-03T23:06:00.967Z,17.90
2018-05-03T23:08:28.655Z,19.93
2018-05-03T23:10:57.066Z,22.17
2018-05-03T23:13:24.778Z,21.63
2018-05-03T23:15:52.480Z,22.70
2018-05-03T23:18:20.115Z,17.43
2018-05-03T23:20:48.556Z,22.80
2018-05-03T23:23:16.233Z,22.70
2018-05-03T23:25:43.894Z,21.07
2018-05-03T23:28:11.576Z,19.50
2018-05-03T23:30:40.018Z,23.80
2018-05-03T23:33:07.647Z,28.03
2018-05-03T23:35:35.314Z,20.20
2018-05-03T23:38:02.975Z,20.00
2018-05-03T23:40:30.606Z,25.50
2018-05-03T23:42:58.323Z,17.53
2018-05-03T23:45:25.994Z,19.90
2018-05-03T23:47:53.634Z,20.70
2018-05-03T23:50:21.303Z,16.27
2018-05-03T23:52:48.982Z,17.43
2018-05-03T23:55:16.663Z,20.13
2018-05-03T23:57:45.115Z,23.20
